Time;durP1;ratioP1;P1;durP2;ratioP2;P2;SDS_P1;SDS_P2;PMS_P1;PMS_P2;Temp;Humidity;BMP_temperature;BMP_pressure;BME280_temperature;BME280_humidity;BME280_pressure;Samples;Min_cycle;Max_cycle;Signal;HPM_P1;HPM_P2
2022/01/31 00:02:04;;;;;;;12.98;3.65;;;4.20;99.90;;;;;;7289823;32;20223;-63
2022/01/31 00:06:06;;;;;;;11.98;2.72;;;4.30;99.90;;;;;;7295507;32;20545;-64
2022/01/31 00:10:10;;;;;;;13.05;2.60;;;4.30;99.90;;;;;;7298343;32;20138;-63
2022/01/31 00:14:29;;;;;;;11.32;2.87;;;4.30;99.90;;;;;;7291504;32;20108;-63
2022/01/31 00:18:31;;;;;;;14.73;3.33;;;4.30;99.90;;;;;;7280507;32;20120;-63
2022/01/31 00:22:33;;;;;;;7.80;2.78;;;4.30;99.90;;;;;;7291171;32;20437;-64
2022/01/31 00:26:34;;;;;;;18.70;3.95;;;4.30;99.90;;;;;;7290378;32;20240;-63
2022/01/31 00:30:36;;;;;;;13.35;2.67;;;4.30;99.90;;;;;;7290364;32;20955;-63
2022/01/31 00:34:38;;;;;;;13.88;2.97;;;4.40;99.90;;;;;;7291622;32;20154;-63
2022/01/31 00:38:40;;;;;;;12.18;2.40;;;4.40;99.90;;;;;;7294575;32;20219;-64
2022/01/31 00:42:42;;;;;;;14.48;2.40;;;4.50;99.90;;;;;;7290563;32;21177;-63
2022/01/31 00:47:03;;;;;;;10.98;3.58;;;4.40;99.90;;;;;;7291811;32;20282;-63
2022/01/31 00:51:05;;;;;;;14.27;2.80;;;4.40;99.90;;;;;;7291846;32;20379;-63
2022/01/31 00:55:09;;;;;;;13.85;2.78;;;4.40;99.90;;;;;;7289069;32;20133;-61
2022/01/31 00:59:10;;;;;;;6.90;2.22;;;4.30;99.90;;;;;;7292640;32;20202;-63
2022/01/31 01:03:12;;;;;;;14.55;2.55;;;4.40;99.90;;;;;;7284723;32;20116;-63
2022/01/31 01:07:14;;;;;;;9.70;2.47;;;4.40;99.90;;;;;;7285364;32;20490;-63
2022/01/31 01:11:16;;;;;;;10.93;2.08;;;4.30;99.90;;;;;;7277536;32;20687;-63
2022/01/31 01:15:18;;;;;;;9.95;2.35;;;4.40;99.90;;;;;;7288305;32;20247;-63
2022/01/31 01:19:19;;;;;;;15.00;3.50;;;4.40;99.90;;;;;;7280219;32;20146;-63
2022/01/31 01:23:21;;;;;;;10.65;2.30;;;4.40;99.90;;;;;;7287563;32;20147;-63
2022/01/31 01:27:23;;;;;;;15.32;2.85;;;4.40;99.90;;;;;;7275264;32;20100;-64
2022/01/31 01:31:26;;;;;;;12.32;2.53;;;4.40;99.90;;;;;;7291743;32;20560;-63
2022/01/31 01:35:33;;;;;;;12.02;2.53;;;4.40;99.90;;;;;;7290379;32;20183;-63
2022/01/31 01:39:35;;;;;;;13.73;2.47;;;4.40;99.90;;;;;;7280532;32;20146;-64
2022/01/31 01:43:38;;;;;;;10.68;2.92;;;4.40;99.90;;;;;;7287007;32;20207;-63
2022/01/31 01:47:40;;;;;;;11.25;2.12;;;4.40;99.90;;;;;;7288838;32;20203;-64
2022/01/31 01:51:42;;;;;;;11.55;2.30;;;4.40;99.90;;;;;;7297369;32;20132;-63
2022/01/31 01:55:47;;;;;;;14.48;2.20;;;4.40;99.90;;;;;;7296169;32;20199;-63
2022/01/31 01:59:54;;;;;;;10.43;2.17;;;4.40;99.90;;;;;;7296270;32;20105;-63
2022/01/31 02:03:56;;;;;;;;;;;4.50;99.90;;;;;;7291798;32;20108;-63
2022/01/31 02:07:57;;;;;;;9.40;2.00;;;4.50;99.90;;;;;;7289795;32;20412;-62
2022/01/31 02:11:59;;;;;;;8.75;1.92;;;4.50;99.90;;;;;;7294564;32;20114;-62
2022/01/31 02:16:02;;;;;;;8.55;2.28;;;4.60;99.90;;;;;;7295252;32;20663;-65
2022/01/31 02:20:06;;;;;;;11.73;2.30;;;4.60;99.90;;;;;;7292615;32;20313;-64
2022/01/31 02:24:07;;;;;;;7.93;1.90;;;4.60;99.90;;;;;;7295472;32;21094;-63
2022/01/31 02:28:09;;;;;;;10.93;2.35;;;4.50;99.90;;;;;;7288886;32;20154;-63
2022/01/31 02:32:12;;;;;;;14.63;3.62;;;4.60;99.90;;;;;;7287889;32;20255;-60
2022/01/31 02:36:14;;;;;;;10.57;2.65;;;4.40;99.90;;;;;;7292084;32;20444;-63
2022/01/31 02:40:16;;;;;;;13.75;2.60;;;4.20;99.90;;;;;;7289633;32;20136;-62
2022/01/31 02:44:17;;;;;;;8.43;2.20;;;4.10;99.90;;;;;;7285984;32;20140;-62
2022/01/31 02:48:23;;;;;;;16.37;2.53;;;4.00;99.90;;;;;;7285950;32;20165;-63
2022/01/31 02:52:28;;;;;;;12.25;2.28;;;4.00;99.90;;;;;;7289651;32;20187;-62
2022/01/31 02:56:30;;;;;;;19.08;2.70;;;4.00;99.90;;;;;;7293177;32;20112;-63
2022/01/31 03:00:32;;;;;;;11.48;2.40;;;4.00;99.90;;;;;;7294065;32;20225;-63
2022/01/31 03:04:33;;;;;;;17.33;2.58;;;4.00;99.90;;;;;;7290878;32;20143;-62
2022/01/31 03:08:35;;;;;;;15.40;3.08;;;3.90;99.90;;;;;;7290883;32;20158;-63
2022/01/31 03:12:37;;;;;;;9.65;2.87;;;3.80;99.90;;;;;;7290962;32;20239;-63
2022/01/31 03:16:41;;;;;;;15.45;3.22;;;3.90;99.90;;;;;;7291698;32;20249;-62
2022/01/31 03:20:42;;;;;;;9.80;2.78;;;3.90;99.90;;;;;;7293335;32;20187;-62
2022/01/31 03:24:44;;;;;;;10.75;2.28;;;3.80;99.90;;;;;;7281273;32;20216;-62
2022/01/31 03:28:46;;;;;;;10.25;2.20;;;3.80;99.90;;;;;;7293812;32;20135;-62
2022/01/31 03:32:47;;;;;;;10.30;2.47;;;3.80;99.90;;;;;;7280152;32;20606;-61
2022/01/31 03:36:49;;;;;;;7.22;1.95;;;3.70;99.90;;;;;;7287657;32;20237;-63
2022/01/31 03:40:51;;;;;;;12.75;2.60;;;3.70;99.90;;;;;;7292830;32;20145;-63
2022/01/31 03:44:53;;;;;;;13.32;2.87;;;3.80;99.90;;;;;;7295050;32;20126;-62
2022/01/31 03:48:55;;;;;;;9.15;2.97;;;3.80;99.90;;;;;;7293257;32;20123;-61
2022/01/31 03:52:57;;;;;;;12.73;3.15;;;3.80;99.90;;;;;;7284962;32;20112;-62
2022/01/31 03:56:58;;;;;;;8.10;2.60;;;3.80;99.90;;;;;;7291431;32;20108;-62
2022/01/31 04:01:00;;;;;;;11.10;2.95;;;3.90;99.90;;;;;;7287975;32;20319;-61
2022/01/31 04:05:02;;;;;;;9.30;2.45;;;3.90;99.90;;;;;;7293189;32;20199;-63
2022/01/31 04:09:05;;;;;;;10.23;3.10;;;3.90;99.90;;;;;;7289828;32;20218;-62
2022/01/31 04:13:06;;;;;;;12.50;2.75;;;4.00;99.90;;;;;;7291161;32;20161;-62
2022/01/31 04:17:09;;;;;;;8.85;2.97;;;4.00;99.90;;;;;;7291484;32;20883;-63
2022/01/31 04:21:10;;;;;;;9.52;2.58;;;4.10;99.90;;;;;;7294787;32;20222;-62
2022/01/31 04:25:27;;;;;;;11.10;3.35;;;4.20;99.90;;;;;;7290376;32;20408;-62
2022/01/31 04:29:31;;;;;;;6.82;2.45;;;4.20;99.90;;;;;;7288155;32;20146;-61
2022/01/31 04:33:33;;;;;;;5.20;2.42;;;4.30;99.90;;;;;;7288943;32;20837;-63
2022/01/31 04:37:35;;;;;;;10.20;3.37;;;4.30;99.90;;;;;;7283039;32;20135;-63
2022/01/31 04:41:36;;;;;;;7.78;3.25;;;4.40;99.90;;;;;;7284746;32;20565;-62
2022/01/31 04:45:38;;;;;;;5.85;2.05;;;4.40;99.90;;;;;;7285648;32;20307;-62
2022/01/31 04:49:40;;;;;;;6.57;3.22;;;4.50;99.90;;;;;;7286212;32;20262;-63
2022/01/31 04:53:42;;;;;;;11.23;3.17;;;4.50;99.90;;;;;;7286489;32;20241;-62
2022/01/31 04:57:43;;;;;;;7.43;3.72;;;4.50;99.90;;;;;;7284082;32;20155;-61
2022/01/31 05:01:47;;;;;;;9.25;3.62;;;4.60;99.90;;;;;;7292995;32;20251;-63
2022/01/31 05:05:49;;;;;;;14.15;3.67;;;4.60;99.90;;;;;;7287622;32;20506;-63
2022/01/31 05:09:51;;;;;;;9.25;3.90;;;4.70;99.90;;;;;;7290232;32;20108;-62
2022/01/31 05:13:52;;;;;;;11.75;4.30;;;4.80;99.90;;;;;;7288814;32;20199;-62
2022/01/31 05:17:54;;;;;;;11.30;3.47;;;4.70;99.90;;;;;;7285738;32;20116;-63
2022/01/31 05:21:56;;;;;;;9.15;3.42;;;4.80;99.90;;;;;;7289767;32;20255;-62
2022/01/31 05:25:58;;;;;;;10.73;3.53;;;4.90;99.90;;;;;;7291031;32;20112;-62
2022/01/31 05:29:59;;;;;;;13.60;4.30;;;4.90;99.90;;;;;;7297364;32;20163;-63
2022/01/31 05:34:01;;;;;;;15.13;4.45;;;5.00;99.90;;;;;;7293251;32;20130;-63
2022/01/31 05:38:03;;;;;;;15.02;3.90;;;5.00;99.90;;;;;;7294257;32;20277;-62
2022/01/31 05:42:06;;;;;;;13.55;4.90;;;5.10;99.90;;;;;;7300507;32;20195;-63
2022/01/31 05:46:08;;;;;;;11.27;3.70;;;5.00;99.90;;;;;;7295570;32;20137;-63
2022/01/31 05:50:09;;;;;;;15.63;4.90;;;5.10;99.90;;;;;;7292873;32;20140;-64
2022/01/31 05:54:11;;;;;;;11.25;3.92;;;5.10;99.90;;;;;;7292836;32;20516;-66
2022/01/31 05:58:14;;;;;;;15.93;4.62;;;5.10;99.90;;;;;;7289573;32;20221;-68
2022/01/31 06:02:15;;;;;;;13.45;4.15;;;5.10;99.90;;;;;;7295397;32;20246;-64
2022/01/31 06:06:17;;;;;;;14.90;3.87;;;5.10;99.90;;;;;;7294011;32;20112;-66
2022/01/31 06:10:22;;;;;;;14.85;3.50;;;5.20;99.90;;;;;;7294445;32;20142;-67
2022/01/31 06:14:24;;;;;;;10.00;2.90;;;5.20;99.90;;;;;;7295534;32;20126;-67
2022/01/31 06:18:25;;;;;;;13.65;2.72;;;5.20;99.90;;;;;;7292399;32;20104;-66
2022/01/31 06:22:27;;;;;;;12.48;3.58;;;5.20;99.90;;;;;;7294803;32;20218;-66
2022/01/31 06:26:29;;;;;;;13.07;2.40;;;5.10;99.90;;;;;;7288490;32;20233;-67
2022/01/31 06:30:31;;;;;;;14.73;2.20;;;5.20;99.90;;;;;;7293696;32;20508;-65
2022/01/31 06:34:33;;;;;;;14.90;2.42;;;5.20;99.90;;;;;;7292267;32;20205;-67
2022/01/31 06:38:36;;;;;;;13.15;2.15;;;5.20;99.90;;;;;;7295482;32;20123;-67
2022/01/31 06:42:38;;;;;;;17.35;2.17;;;5.20;99.90;;;;;;7291986;32;20150;-66
2022/01/31 06:46:40;;;;;;;13.98;2.05;;;5.20;99.90;;;;;;7292738;32;20131;-64
2022/01/31 06:50:41;;;;;;;13.62;1.75;;;5.20;99.90;;;;;;7277029;32;20597;-65
2022/01/31 06:54:44;;;;;;;10.75;1.70;;;5.20;99.90;;;;;;7289005;32;20697;-65
2022/01/31 06:58:45;;;;;;;11.45;1.48;;;5.20;99.90;;;;;;7286693;32;20226;-64
2022/01/31 07:02:49;;;;;;;10.85;1.70;;;5.00;99.90;;;;;;7290003;32;20452;-63
2022/01/31 07:06:51;;;;;;;6.40;1.12;;;4.70;99.90;;;;;;7295059;32;20433;-64
2022/01/31 07:10:52;;;;;;;6.80;1.23;;;4.60;99.90;;;;;;7290602;32;20120;-63
2022/01/31 07:14:54;;;;;;;9.75;1.20;;;4.40;99.90;;;;;;7293548;32;20185;-68
2022/01/31 07:19:05;;;;;;;7.55;1.52;;;4.30;99.90;;;;;;7292991;32;20112;-66
2022/01/31 07:23:23;;;;;;;6.37;1.10;;;4.30;99.90;;;;;;7288903;32;20223;-68
2022/01/31 07:27:25;;;;;;;4.65;0.80;;;4.30;99.90;;;;;;7283284;32;20124;-67
2022/01/31 07:31:26;;;;;;;4.55;0.80;;;4.10;99.90;;;;;;7290955;32;20237;-67
2022/01/31 07:35:28;;;;;;;3.37;1.20;;;4.10;99.90;;;;;;7294229;32;20112;-67
2022/01/31 07:39:31;;;;;;;2.50;0.57;;;4.10;99.90;;;;;;7289730;32;20979;-65
2022/01/31 07:43:33;;;;;;;5.78;0.75;;;4.10;99.90;;;;;;7286367;32;20333;-66
2022/01/31 07:47:35;;;;;;;6.07;0.90;;;4.20;99.90;;;;;;7287405;32;20199;-65
2022/01/31 07:51:41;;;;;;;11.40;1.25;;;4.20;99.90;;;;;;7292885;32;20667;-66
2022/01/31 07:55:43;;;;;;;8.63;1.30;;;4.20;99.90;;;;;;7286836;32;20251;-66
2022/01/31 07:59:45;;;;;;;10.85;1.50;;;4.20;99.90;;;;;;7293481;32;20231;-66
2022/01/31 08:03:47;;;;;;;6.28;1.60;;;4.30;99.90;;;;;;7286915;32;20112;-65
2022/01/31 08:07:48;;;;;;;6.82;1.52;;;4.30;99.90;;;;;;7290181;32;20600;-64
2022/01/31 08:11:50;;;;;;;7.12;2.40;;;4.20;99.90;;;;;;7288731;32;20242;-66
2022/01/31 08:16:02;;;;;;;10.70;2.12;;;4.30;99.90;;;;;;7293668;32;20531;-66
2022/01/31 08:20:04;;;;;;;12.57;3.22;;;4.30;99.90;;;;;;7289094;32;20127;-65
2022/01/31 08:24:06;;;;;;;8.18;2.03;;;4.30;99.90;;;;;;7288355;32;20638;-66
2022/01/31 08:28:11;;;;;;;14.70;2.35;;;4.30;99.90;;;;;;7287398;32;20136;-66
2022/01/31 08:32:24;;;;;;;12.13;2.30;;;4.30;99.90;;;;;;7284264;32;43610;-66
2022/01/31 08:36:27;;;;;;;8.43;2.22;;;4.30;99.90;;;;;;7282435;32;20147;-66
2022/01/31 08:40:29;;;;;;;3.67;1.20;;;4.30;99.90;;;;;;7286257;32;20226;-66
2022/01/31 08:44:36;;;;;;;11.15;1.52;;;4.40;99.90;;;;;;7279737;32;20137;-66
2022/01/31 08:48:38;;;;;;;9.55;1.65;;;4.20;99.90;;;;;;7286642;32;20165;-66
2022/01/31 08:52:40;;;;;;;8.85;1.62;;;4.20;99.90;;;;;;7281498;32;20591;-66
2022/01/31 08:56:47;;;;;;;7.07;1.50;;;4.20;99.90;;;;;;7285189;32;20952;-66
2022/01/31 09:00:57;;;;;;;11.60;1.67;;;4.20;99.90;;;;;;7293554;32;20683;-67
2022/01/31 09:04:59;;;;;;;8.48;1.58;;;4.20;99.90;;;;;;7289551;32;20125;-66
2022/01/31 09:09:05;;;;;;;6.15;1.65;;;4.20;99.90;;;;;;7281999;32;20965;-66
2022/01/31 09:13:10;;;;;;;;;;;4.30;99.90;;;;;;7282335;32;20175;-66
2022/01/31 09:17:13;;;;;;;11.12;1.92;;;4.20;99.90;;;;;;7289107;32;20105;-65
2022/01/31 09:21:14;;;;;;;6.10;1.95;;;4.30;99.90;;;;;;7289877;32;20774;-66
2022/01/31 09:25:16;;;;;;;10.25;2.30;;;4.20;99.90;;;;;;7293249;32;21544;-65
2022/01/31 09:29:18;;;;;;;9.35;1.60;;;4.30;99.90;;;;;;7292138;32;20234;-65
2022/01/31 09:33:20;;;;;;;10.15;2.00;;;4.30;99.90;;;;;;7285442;32;20123;-64
2022/01/31 09:37:23;;;;;;;11.20;2.58;;;4.30;99.90;;;;;;7296071;32;20111;-64
2022/01/31 09:41:27;;;;;;;13.02;2.10;;;4.30;99.90;;;;;;7291707;32;20271;-66
2022/01/31 09:49:50;;;;;;;11.70;1.80;;;4.30;99.90;;;;;;7289142;32;20755;-66
2022/01/31 09:54:01;;;;;;;5.90;1.25;;;4.40;99.90;;;;;;7294268;32;20235;-66
2022/01/31 09:58:06;;;;;;;11.07;2.08;;;4.30;99.90;;;;;;7296940;32;20403;-66
2022/01/31 10:02:12;;;;;;;9.88;1.65;;;4.40;99.90;;;;;;7291356;32;20174;-65
2022/01/31 10:06:35;;;;;;;15.68;2.62;;;4.40;99.90;;;;;;7285288;32;20127;-65
2022/01/31 10:10:40;;;;;;;13.30;2.35;;;4.40;99.90;;;;;;7289718;32;20108;-64
2022/01/31 10:19:08;;;;;;;18.42;2.42;;;4.50;99.90;;;;;;7283947;32;20484;-68
2022/01/31 10:23:13;;;;;;;12.35;1.98;;;4.50;99.90;;;;;;7283528;32;20491;-65
2022/01/31 10:27:17;;;;;;;15.02;2.17;;;4.50;99.90;;;;;;7288065;32;20439;-65
2022/01/31 10:31:19;;;;;;;16.23;2.42;;;4.50;99.90;;;;;;7289162;32;20109;-65
2022/01/31 10:35:24;;;;;;;13.05;1.92;;;4.60;99.90;;;;;;7288652;32;20393;-64
2022/01/31 10:53:02;;;;;;;17.77;1.90;;;4.60;99.90;;;;;;7288971;32;20137;-64
2022/01/31 10:57:22;;;;;;;18.45;2.10;;;4.70;99.90;;;;;;7288658;32;20324;-65
2022/01/31 11:01:25;;;;;;;15.35;2.00;;;4.70;99.90;;;;;;7274215;32;20215;-66
2022/01/31 11:05:50;;;;;;;16.60;2.03;;;4.70;99.90;;;;;;7289419;32;20112;-64
2022/01/31 11:09:53;;;;;;;12.82;1.92;;;4.70;99.90;;;;;;7289812;32;20510;-65
2022/01/31 11:13:55;;;;;;;16.42;1.98;;;4.70;99.90;;;;;;7288048;32;20134;-64
2022/01/31 11:18:18;;;;;;;18.40;1.90;;;4.70;99.90;;;;;;7283285;32;20104;-65
2022/01/31 11:22:27;;;;;;;13.10;2.25;;;4.70;99.90;;;;;;7287268;32;20281;-66
2022/01/31 11:26:50;;;;;;;23.45;3.60;;;4.70;99.90;;;;;;7285254;32;20166;-66
2022/01/31 11:30:53;;;;;;;20.60;2.62;;;4.60;99.90;;;;;;7281566;32;20580;-65
2022/01/31 11:34:55;;;;;;;20.55;2.70;;;4.60;99.90;;;;;;7283055;32;20240;-66
2022/01/31 11:38:58;;;;;;;26.30;4.03;;;4.60;99.90;;;;;;7272420;32;20179;-66
2022/01/31 11:43:02;;;;;;;26.17;3.75;;;4.70;99.90;;;;;;7284311;32;20112;-66
2022/01/31 11:47:07;;;;;;;29.30;3.42;;;4.80;99.90;;;;;;7283338;32;20194;-66
2022/01/31 11:51:08;;;;;;;28.90;3.87;;;4.80;99.90;;;;;;7281326;32;20839;-65
2022/01/31 11:55:17;;;;;;;17.27;2.95;;;4.80;99.90;;;;;;7286073;32;20261;-66
2022/01/31 11:59:23;;;;;;;22.95;4.07;;;4.90;99.90;;;;;;7277726;32;20228;-65
2022/01/31 12:03:26;;;;;;;25.73;3.62;;;4.90;99.90;;;;;;7268203;32;20260;-66
2022/01/31 12:07:42;;;;;;;30.88;3.83;;;4.90;99.90;;;;;;7282186;32;20678;-66
2022/01/31 12:11:59;;;;;;;21.40;3.05;;;4.90;99.90;;;;;;7283190;32;20205;-67
2022/01/31 12:16:24;;;;;;;32.83;3.65;;;4.90;99.90;;;;;;7283026;32;20112;-68
2022/01/31 12:25:30;;;;;;;23.55;2.92;;;5.00;99.90;;;;;;7286092;32;20206;-66
2022/01/31 12:29:38;;;;;;;20.98;2.62;;;5.00;99.90;;;;;;7285458;32;20141;-66
2022/01/31 12:33:42;;;;;;;22.62;2.72;;;4.90;99.90;;;;;;7270147;32;20112;-67
2022/01/31 12:37:51;;;;;;;19.45;2.80;;;4.90;99.90;;;;;;7279190;32;20211;-67
2022/01/31 12:41:59;;;;;;;14.80;1.73;;;5.00;99.90;;;;;;7288794;32;20134;-67
2022/01/31 12:46:04;;;;;;;19.02;2.22;;;5.00;99.90;;;;;;7282074;32;20690;-70
2022/01/31 12:50:20;;;;;;;16.55;2.42;;;4.90;99.90;;;;;;7284671;32;20190;-67
2022/01/31 12:54:22;;;;;;;14.63;2.05;;;4.90;99.90;;;;;;7283471;32;20116;-67
2022/01/31 12:58:46;;;;;;;12.70;2.40;;;4.90;99.90;;;;;;7287233;32;20668;-66
2022/01/31 13:02:49;;;;;;;18.98;2.10;;;4.90;99.90;;;;;;7270027;32;20119;-64
2022/01/31 13:06:55;;;;;;;15.55;2.10;;;4.80;99.90;;;;;;7259813;32;20131;-66
2022/01/31 13:10:57;;;;;;;15.10;2.08;;;4.80;99.90;;;;;;7271011;32;20159;-57
2022/01/31 13:14:59;;;;;;;18.42;2.22;;;5.10;99.90;;;;;;7267257;32;20135;-61
2022/01/31 13:19:13;;;;;;;12.55;1.98;;;5.00;99.90;;;;;;7277027;32;20211;-64
2022/01/31 13:23:14;;;;;;;7.05;1.37;;;4.90;99.90;;;;;;7285953;32;20126;-64
2022/01/31 13:27:21;;;;;;;16.05;2.05;;;5.00;99.90;;;;;;7274384;32;20115;-65
2022/01/31 13:31:44;;;;;;;13.45;2.05;;;4.90;99.90;;;;;;7280050;32;20606;-64
2022/01/31 13:35:47;;;;;;;12.48;2.37;;;4.90;99.90;;;;;;7284324;32;20126;-65
2022/01/31 13:39:54;;;;;;;10.50;1.67;;;4.90;99.90;;;;;;7288801;32;20203;-65
2022/01/31 13:44:00;;;;;;;11.77;1.85;;;4.90;99.90;;;;;;7271551;32;20104;-65
2022/01/31 13:48:12;;;;;;;17.90;2.20;;;4.90;99.90;;;;;;7286563;32;20670;-64
2022/01/31 13:52:15;;;;;;;12.40;2.37;;;4.90;99.90;;;;;;7289134;32;20713;-64
2022/01/31 13:56:17;;;;;;;13.40;2.08;;;4.90;99.90;;;;;;7291979;32;20104;-64
2022/01/31 14:00:20;;;;;;;21.15;3.08;;;4.90;99.90;;;;;;7290445;32;20527;-64
2022/01/31 14:04:32;;;;;;;15.15;2.15;;;5.00;99.90;;;;;;7287531;32;20189;-64
2022/01/31 14:08:39;;;;;;;12.27;2.03;;;5.00;99.90;;;;;;7285419;32;20293;-64
2022/01/31 14:12:41;;;;;;;13.77;1.90;;;5.00;99.90;;;;;;7288882;32;20523;-65
2022/01/31 14:16:44;;;;;;;10.63;1.60;;;5.00;99.90;;;;;;7286931;32;20222;-65
2022/01/31 14:20:52;;;;;;;16.65;2.37;;;5.00;99.90;;;;;;7294188;32;20160;-64
2022/01/31 14:24:55;;;;;;;19.75;2.22;;;5.00;99.90;;;;;;7287750;32;20211;-63
2022/01/31 14:28:57;;;;;;;12.20;2.72;;;5.00;99.90;;;;;;7283271;32;20187;-66
2022/01/31 14:33:04;;;;;;;14.10;1.98;;;5.00;99.90;;;;;;7285466;32;20579;-66
2022/01/31 14:37:08;;;;;;;14.02;2.28;;;5.00;99.90;;;;;;7284418;32;20759;-65
2022/01/31 14:41:29;;;;;;;20.40;3.05;;;5.00;99.90;;;;;;7284626;32;20217;-66
2022/01/31 14:50:07;;;;;;;18.25;2.47;;;5.00;99.90;;;;;;7282553;32;20230;-66
2022/01/31 14:54:12;;;;;;;10.25;2.28;;;5.10;99.90;;;;;;7286783;32;20668;-65
2022/01/31 14:58:14;;;;;;;15.57;3.12;;;5.10;99.90;;;;;;7286441;32;20153;-66
2022/01/31 15:02:16;;;;;;;24.50;3.22;;;5.10;99.90;;;;;;7284772;32;20515;-66
2022/01/31 15:06:31;;;;;;;26.12;6.32;;;5.10;99.90;;;;;;7287299;32;20244;-65
2022/01/31 15:10:33;;;;;;;24.85;4.62;;;5.10;99.90;;;;;;7284083;32;20673;-65
2022/01/31 15:14:35;;;;;;;22.00;5.15;;;5.10;99.90;;;;;;7285896;32;20187;-65
2022/01/31 15:18:39;;;;;;;17.95;4.53;;;5.10;99.90;;;;;;7286504;32;20108;-65
2022/01/31 15:22:50;;;;;;;24.20;5.53;;;5.10;99.90;;;;;;7283601;32;20134;-66
2022/01/31 15:26:52;;;;;;;17.92;3.47;;;5.10;99.90;;;;;;7286213;32;20199;-65
2022/01/31 15:30:53;;;;;;;22.98;4.28;;;5.10;99.90;;;;;;7286746;32;20134;-65
2022/01/31 15:34:55;;;;;;;22.98;4.68;;;5.10;99.90;;;;;;7284254;32;20116;-65
2022/01/31 15:38:57;;;;;;;16.52;3.92;;;5.10;99.90;;;;;;7285369;32;20147;-65
2022/01/31 15:43:04;;;;;;;21.42;4.25;;;5.00;99.90;;;;;;7287788;32;20489;-65
2022/01/31 15:47:06;;;;;;;18.45;4.22;;;5.00;99.90;;;;;;7286662;32;20134;-65
2022/01/31 15:51:08;;;;;;;19.67;4.37;;;5.10;99.90;;;;;;7283007;32;20254;-64
2022/01/31 15:55:11;;;;;;;23.35;4.68;;;5.00;99.90;;;;;;7270814;32;20201;-65
2022/01/31 15:59:13;;;;;;;27.83;6.20;;;5.10;99.90;;;;;;7283208;32;20688;-65
2022/01/31 16:03:15;;;;;;;21.50;6.50;;;5.10;99.90;;;;;;7278985;32;20520;-66
2022/01/31 16:07:17;;;;;;;20.00;5.78;;;5.10;99.90;;;;;;7287015;32;20147;-66
2022/01/31 16:11:18;;;;;;;33.15;6.47;;;5.10;99.90;;;;;;7284966;32;20693;-64
2022/01/31 16:15:41;;;;;;;26.87;5.35;;;5.10;99.90;;;;;;7279994;32;20120;-64
2022/01/31 16:19:46;;;;;;;26.98;3.75;;;5.20;99.90;;;;;;7282020;32;20460;-64
2022/01/31 16:23:47;;;;;;;17.40;3.00;;;5.10;99.90;;;;;;7289551;32;20154;-63
2022/01/31 16:27:49;;;;;;;17.08;3.05;;;5.10;99.90;;;;;;7286582;32;20112;-64
2022/01/31 16:31:51;;;;;;;13.57;3.10;;;5.10;99.90;;;;;;7287632;32;20108;-65
2022/01/31 16:35:52;;;;;;;11.38;2.62;;;5.10;99.90;;;;;;7285609;32;20128;-63
2022/01/31 16:39:54;;;;;;;12.00;2.40;;;5.00;99.90;;;;;;7292420;32;20735;-64
2022/01/31 16:43:56;;;;;;;17.40;2.90;;;5.00;99.90;;;;;;7271336;32;20234;-64
2022/01/31 16:48:00;;;;;;;11.93;3.00;;;5.00;99.90;;;;;;7287219;32;20248;-62
2022/01/31 16:52:02;;;;;;;17.30;3.47;;;5.00;99.90;;;;;;7257649;32;20142;-62
2022/01/31 16:56:04;;;;;;;15.10;3.72;;;5.00;99.90;;;;;;7289684;32;20230;-65
2022/01/31 17:00:26;;;;;;;19.77;5.62;;;5.00;99.90;;;;;;7283298;32;20662;-65
2022/01/31 17:04:29;;;;;;;20.80;5.40;;;5.00;99.90;;;;;;7269317;32;20257;-64
2022/01/31 17:08:33;;;;;;;14.27;4.90;;;5.00;99.90;;;;;;7285487;32;20132;-63
2022/01/31 17:12:34;;;;;;;20.52;6.03;;;5.10;99.90;;;;;;7289675;32;20187;-64
2022/01/31 17:16:38;;;;;;;22.65;6.62;;;5.10;99.90;;;;;;7292565;32;20225;-64
2022/01/31 17:20:39;;;;;;;25.75;9.88;;;5.10;99.90;;;;;;7294612;32;20163;-64
2022/01/31 17:24:41;;;;;;;25.65;7.95;;;5.20;99.90;;;;;;7287857;32;20109;-64
2022/01/31 17:28:43;;;;;;;15.65;4.55;;;5.20;99.90;;;;;;7292362;32;20166;-64
2022/01/31 17:32:45;;;;;;;17.98;5.97;;;5.20;99.90;;;;;;7289583;32;20757;-64
2022/01/31 17:36:46;;;;;;;14.52;4.05;;;5.10;99.90;;;;;;7289638;32;20109;-65
2022/01/31 17:40:48;;;;;;;13.18;2.17;;;5.20;99.90;;;;;;7290840;32;20173;-65
2022/01/31 17:44:57;;;;;;;9.95;2.97;;;5.10;99.90;;;;;;7291456;32;20112;-65
2022/01/31 17:48:59;;;;;;;12.77;2.45;;;5.20;99.90;;;;;;7283458;32;20257;-65
2022/01/31 17:53:02;;;;;;;8.95;1.60;;;5.10;99.90;;;;;;7269537;32;20108;-65
2022/01/31 17:57:05;;;;;;;12.00;1.60;;;5.20;99.90;;;;;;7286595;32;20709;-64
2022/01/31 18:01:11;;;;;;;11.12;1.83;;;5.10;99.90;;;;;;7282292;32;20234;-65
2022/01/31 18:05:13;;;;;;;10.90;2.20;;;5.10;99.90;;;;;;7294822;32;20142;-66
2022/01/31 18:09:14;;;;;;;10.68;1.98;;;5.10;99.90;;;;;;7294503;32;20234;-64
2022/01/31 18:13:16;;;;;;;18.00;2.87;;;5.20;99.90;;;;;;7283577;32;20794;-64
2022/01/31 18:17:18;;;;;;;11.68;1.73;;;5.10;99.90;;;;;;7280172;32;20564;-65
2022/01/31 18:21:20;;;;;;;13.55;2.10;;;5.10;99.90;;;;;;7285383;32;21224;-64
2022/01/31 18:25:21;;;;;;;12.90;2.10;;;5.10;99.90;;;;;;7282352;32;20721;-64
2022/01/31 18:29:23;;;;;;;10.80;2.00;;;5.10;99.90;;;;;;7281237;32;20112;-64
2022/01/31 18:33:29;;;;;;;14.38;1.70;;;5.20;99.90;;;;;;7288860;32;20198;-65
2022/01/31 18:37:31;;;;;;;8.60;2.58;;;5.10;99.90;;;;;;7289697;32;20230;-64
2022/01/31 18:41:32;;;;;;;11.20;1.80;;;5.10;99.90;;;;;;7287240;32;20104;-64
2022/01/31 18:45:34;;;;;;;11.27;1.87;;;5.30;99.90;;;;;;7290978;32;20567;-63
2022/01/31 18:49:43;;;;;;;9.82;1.62;;;5.30;99.90;;;;;;7282813;32;20195;-65
2022/01/31 18:53:45;;;;;;;8.90;1.42;;;5.30;99.90;;;;;;7275655;32;20693;-66
2022/01/31 18:57:47;;;;;;;14.25;1.65;;;5.20;99.90;;;;;;7295724;32;20288;-68
2022/01/31 19:01:49;;;;;;;8.68;1.33;;;5.20;99.90;;;;;;7288385;32;20138;-66
2022/01/31 19:05:51;;;;;;;6.55;1.90;;;5.10;99.90;;;;;;7294742;32;20167;-65
2022/01/31 19:09:53;;;;;;;6.65;1.58;;;5.10;99.90;;;;;;7288737;32;20132;-66
2022/01/31 19:14:08;;;;;;;4.87;1.15;;;5.10;99.90;;;;;;7292895;32;20440;-68
2022/01/31 19:18:12;;;;;;;7.20;1.30;;;5.10;99.90;;;;;;7282244;32;20190;-71
2022/01/31 19:22:14;;;;;;;5.25;1.45;;;5.10;99.90;;;;;;7286671;32;20255;-68
2022/01/31 19:26:18;;;;;;;7.87;1.70;;;5.00;99.90;;;;;;7286831;32;20190;-68
2022/01/31 19:30:20;;;;;;;9.02;1.98;;;5.00;99.90;;;;;;7293804;32;20262;-68
2022/01/31 19:34:22;;;;;;;11.12;2.20;;;5.00;99.90;;;;;;7291772;32;20130;-68
2022/01/31 19:38:31;;;;;;;13.57;1.85;;;4.90;99.90;;;;;;7273518;32;20100;-68
2022/01/31 19:47:13;;;;;;;8.65;1.83;;;4.90;99.90;;;;;;7276036;32;20163;-68
2022/01/31 19:51:21;;;;;;;11.12;1.40;;;4.90;99.90;;;;;;7287083;32;20112;-73
2022/01/31 19:55:25;;;;;;;12.20;2.47;;;5.00;99.90;;;;;;7292482;32;20301;-66
2022/01/31 19:59:28;;;;;;;16.17;1.95;;;4.90;99.90;;;;;;7285837;32;20162;-69
2022/01/31 20:03:30;;;;;;;10.50;1.48;;;4.90;99.90;;;;;;7279117;32;20140;-71
2022/01/31 20:07:32;;;;;;;9.63;1.70;;;4.90;99.90;;;;;;7280213;32;20140;-69
2022/01/31 20:11:35;;;;;;;11.80;1.83;;;4.80;99.90;;;;;;7289435;32;20143;-69
2022/01/31 20:15:38;;;;;;;10.20;2.08;;;4.80;99.90;;;;;;7289208;32;20218;-69
2022/01/31 20:19:42;;;;;;;14.70;3.95;;;4.70;99.90;;;;;;7279635;32;20672;-70
2022/01/31 20:23:44;;;;;;;15.43;2.78;;;4.70;99.90;;;;;;7290261;32;20112;-70
2022/01/31 20:27:46;;;;;;;13.57;2.10;;;4.70;99.90;;;;;;7284722;32;20217;-70
2022/01/31 20:31:49;;;;;;;15.95;2.47;;;4.60;99.90;;;;;;7273386;32;20742;-70
2022/01/31 20:35:52;;;;;;;17.37;2.00;;;4.60;99.90;;;;;;7264285;32;20218;-65
2022/01/31 20:40:39;;;;;;;13.88;2.75;;;4.70;99.90;;;;;;7271585;32;20531;-69
2022/01/31 20:44:36;;;;;;;17.85;1.98;;;4.60;99.90;;;;;;7281725;32;20708;-69
2022/01/31 20:48:39;;;;;;;15.32;3.08;;;4.60;99.90;;;;;;7281193;32;20130;-69
2022/01/31 20:52:40;;;;;;;22.92;3.10;;;4.60;99.90;;;;;;7279803;32;20552;-67
2022/01/31 20:56:42;;;;;;;26.27;6.87;;;4.70;99.90;;;;;;7273278;32;20116;-68
2022/01/31 21:00:54;;;;;;;22.35;3.40;;;4.70;99.90;;;;;;7264555;32;20609;-68
2022/01/31 21:04:57;;;;;;;21.30;3.30;;;4.70;99.90;;;;;;7268177;32;20584;-70
2022/01/31 21:09:00;;;;;;;18.42;2.78;;;4.50;99.90;;;;;;7282237;32;20505;-67
2022/01/31 21:13:02;;;;;;;24.15;3.35;;;4.40;99.90;;;;;;7270114;32;20126;-69
2022/01/31 21:17:05;;;;;;;19.95;2.60;;;4.30;99.90;;;;;;7276383;32;20479;-71
2022/01/31 21:21:07;;;;;;;24.70;3.40;;;4.30;99.90;;;;;;7280741;32;20195;-69
2022/01/31 21:25:10;;;;;;;14.85;2.70;;;4.20;99.90;;;;;;7282013;32;20326;-69
2022/01/31 21:29:11;;;;;;;21.60;3.17;;;4.20;99.90;;;;;;7270315;32;20116;-69
2022/01/31 21:33:22;;;;;;;28.23;5.37;;;4.30;99.90;;;;;;7284977;32;20310;-67
2022/01/31 21:37:25;;;;;;;17.42;3.72;;;4.20;99.90;;;;;;7248997;32;20158;-67
2022/01/31 21:41:27;;;;;;;31.10;4.68;;;4.30;99.90;;;;;;7280070;32;20279;-65
2022/01/31 21:45:29;;;;;;;26.15;4.70;;;4.20;99.90;;;;;;7270157;32;20276;-64
2022/01/31 21:49:32;;;;;;;24.70;4.32;;;4.20;99.90;;;;;;7263249;32;20160;-63
2022/01/31 21:53:39;;;;;;;31.02;3.97;;;4.20;99.90;;;;;;7272026;32;20115;-62